createdAt,value
2022-12-18T00:00:29.612Z,-5.98
2022-12-18T00:03:37.190Z,-6.00
2022-12-18T00:06:45.813Z,-5.95
2022-12-18T00:09:54.590Z,-5.88
2022-12-18T00:13:03.775Z,-5.89
2022-12-18T00:16:16.690Z,-5.86
2022-12-18T00:19:22.255Z,-5.77
2022-12-18T00:22:31.370Z,-5.84
2022-12-18T00:25:38.527Z,-5.82
2022-12-18T00:28:45.225Z,-5.86
2022-12-18T00:31:50.643Z,-5.90
2022-12-18T00:34:57.146Z,-5.80
2022-12-18T00:38:07.521Z,-5.71
2022-12-18T00:41:36.854Z,-5.74
2022-12-18T00:44:40.589Z,-5.77
2022-12-18T00:47:46.798Z,-5.72
2022-12-18T00:50:53.635Z,-5.81
2022-12-18T00:54:03.047Z,-5.84
2022-12-18T00:57:08.454Z,-5.81
2022-12-18T01:00:18.581Z,-5.75
2022-12-18T01:03:23.988Z,-5.70
2022-12-18T01:06:30.442Z,-5.67
2022-12-18T01:09:38.567Z,-5.61
2022-12-18T01:12:45.842Z,-5.54
2022-12-18T01:15:53.089Z,-5.45
2022-12-18T01:18:59.861Z,-5.43
2022-12-18T01:22:06.468Z,-5.41
2022-12-18T01:25:15.728Z,-5.58
2022-12-18T01:28:22.364Z,-5.64
2022-12-18T01:31:32.979Z,-5.65
2022-12-18T01:34:42.412Z,-5.67
2022-12-18T01:37:48.650Z,-5.76
2022-12-18T01:41:01.905Z,-5.71
2022-12-18T01:45:02.583Z,-5.60
2022-12-18T01:48:12.673Z,-5.66
2022-12-18T01:51:21.110Z,-5.74
2022-12-18T01:54:26.938Z,-5.74
2022-12-18T01:57:36.976Z,-5.74
2022-12-18T02:00:42.988Z,-5.71
2022-12-18T02:03:49.980Z,-5.65
2022-12-18T02:07:09.792Z,-5.64
2022-12-18T02:10:28.181Z,-5.55
2022-12-18T02:13:49.441Z,-5.44
2022-12-18T02:17:05.670Z,-5.51
2022-12-18T02:20:25.696Z,-5.42
2022-12-18T02:24:00.333Z,-5.42
2022-12-18T02:27:13.148Z,-5.38
2022-12-18T02:30:22.393Z,-5.32
2022-12-18T02:33:32.913Z,-5.42
2022-12-18T02:36:45.781Z,-5.47
2022-12-18T02:39:57.414Z,-5.46
2022-12-18T02:43:12.837Z,-5.48
2022-12-18T02:46:36.463Z,-5.49
2022-12-18T02:50:06.496Z,-5.43
2022-12-18T02:53:28.431Z,-5.45
2022-12-18T02:56:50.098Z,-5.45
2022-12-18T03:00:12.850Z,-5.42
2022-12-18T03:03:32.120Z,-5.41
2022-12-18T03:06:46.480Z,-5.37
2022-12-18T03:09:59.902Z,-5.31
2022-12-18T03:13:13.049Z,-5.26
2022-12-18T03:16:32.318Z,-5.26
2022-12-18T03:19:40.380Z,-5.34
2022-12-18T03:22:55.943Z,-5.45
2022-12-18T03:26:11.108Z,-5.70
2022-12-18T03:29:29.137Z,-5.50
2022-12-18T03:32:49.093Z,-5.47
2022-12-18T03:35:56.195Z,-5.49
2022-12-18T03:39:02.160Z,-5.59
2022-12-18T03:42:19.990Z,-5.63
2022-12-18T03:45:41.370Z,-5.67
2022-12-18T03:49:01.094Z,-5.64
2022-12-18T03:52:15.632Z,-5.67
2022-12-18T03:55:26.997Z,-5.65
2022-12-18T03:58:42.885Z,-5.74
2022-12-18T04:02:07.534Z,-5.79
2022-12-18T04:05:19.863Z,-5.77
2022-12-18T04:08:29.254Z,-5.84
2022-12-18T04:11:41.267Z,-5.85
2022-12-18T04:14:48.457Z,-5.94
2022-12-18T04:17:55.012Z,-5.95
2022-12-18T04:21:07.532Z,-5.85
2022-12-18T04:24:13.069Z,-5.79
2022-12-18T04:27:26.069Z,-5.65
2022-12-18T04:30:31.767Z,-5.51
2022-12-18T04:33:39.299Z,-5.46
2022-12-18T04:36:48.359Z,-5.42
2022-12-18T04:39:55.193Z,-5.48
2022-12-18T04:43:09.583Z,-5.46
2022-12-18T04:46:15.984Z,-5.49
2022-12-18T04:49:21.429Z,-5.58
2022-12-18T04:52:30.436Z,-5.62
2022-12-18T04:55:36.064Z,-5.72
2022-12-18T04:58:44.898Z,-5.77
2022-12-18T05:01:50.902Z,-5.89
2022-12-18T05:04:57.272Z,-5.95
2022-12-18T05:08:05.883Z,-5.97
2022-12-18T05:11:16.731Z,-6.02
2022-12-18T05:14:22.634Z,-6.19
2022-12-18T05:17:29.025Z,-6.30
2022-12-18T05:20:35.416Z,-6.18
2022-12-18T05:23:44.646Z,-6.10
2022-12-18T05:26:50.555Z,-5.96
2022-12-18T05:29:57.259Z,-5.89
2022-12-18T05:33:02.739Z,-5.82
2022-12-18T05:36:12.545Z,-5.75
2022-12-18T05:39:20.661Z,-5.75
2022-12-18T05:42:27.018Z,-5.77
2022-12-18T05:45:32.626Z,-5.79
2022-12-18T05:48:38.911Z,-5.76
2022-12-18T05:51:44.270Z,-5.68
2022-12-18T05:54:53.535Z,-5.66
2022-12-18T05:57:58.942Z,-5.61
2022-12-18T06:01:13.474Z,-5.55
2022-12-18T06:04:19.198Z,-5.56
2022-12-18T06:07:25.480Z,-5.58
2022-12-18T06:10:33.628Z,-5.60
2022-12-18T06:13:40.452Z,-5.60
2022-12-18T06:16:45.934Z,-5.65
2022-12-18T06:19:52.580Z,-5.64
2022-12-18T06:22:57.939Z,-5.64
2022-12-18T06:26:10.901Z,-5.64
2022-12-18T06:29:16.496Z,-5.62
2022-12-18T06:32:22.853Z,-5.55
2022-12-18T06:35:28.243Z,-5.47
2022-12-18T06:38:35.870Z,-5.40
2022-12-18T06:41:44.033Z,-5.47
2022-12-18T06:44:50.252Z,-5.44
2022-12-18T06:47:55.809Z,-5.40
2022-12-18T06:51:03.456Z,-5.39
2022-12-18T06:54:09.197Z,-5.35
2022-12-18T06:57:18.186Z,-5.40
2022-12-18T07:00:23.612Z,-5.47
2022-12-18T07:03:29.797Z,-5.48
2022-12-18T07:06:35.714Z,-5.49
2022-12-18T07:09:41.958Z,-5.55
2022-12-18T07:12:50.313Z,-5.60
2022-12-18T07:15:57.030Z,-5.69
2022-12-18T07:19:02.431Z,-5.75
2022-12-18T07:22:08.635Z,-5.80
2022-12-18T07:25:14.025Z,-5.86
2022-12-18T07:28:23.035Z,-5.85
2022-12-18T07:31:31.131Z,-5.82
2022-12-18T07:34:38.258Z,-5.78
2022-12-18T07:37:44.003Z,-5.73
2022-12-18T07:40:50.207Z,-5.70
2022-12-18T07:43:58.584Z,-5.68
2022-12-18T07:47:09.107Z,-5.57
2022-12-18T07:50:17.292Z,-5.52
2022-12-18T07:53:23.554Z,-5.61
2022-12-18T07:56:30.902Z,-5.65
2022-12-18T07:59:48.636Z,-5.65
2022-12-18T08:02:54.532Z,-5.70
2022-12-18T08:06:04.551Z,-5.67
2022-12-18T08:09:10.084Z,-5.61
2022-12-18T08:12:16.485Z,-5.56
2022-12-18T08:15:24.614Z,-5.54
2022-12-18T08:18:38.564Z,-5.53
2022-12-18T08:21:47.196Z,-5.50
2022-12-18T08:24:53.981Z,-5.45
2022-12-18T08:28:00.246Z,-5.40
2022-12-18T08:31:10.954Z,-5.40
2022-12-18T08:34:16.630Z,-5.36
2022-12-18T08:37:22.886Z,-5.34
2022-12-18T08:40:28.282Z,-5.32
2022-12-18T08:43:50.236Z,-5.27
2022-12-18T08:46:58.412Z,-5.25
2022-12-18T08:50:04.790Z,-5.22
2022-12-18T08:53:10.741Z,-5.21
2022-12-18T08:56:18.614Z,-5.21
2022-12-18T08:59:24.699Z,-5.34
2022-12-18T09:02:34.082Z,-5.26
2022-12-18T09:05:39.705Z,-5.21
2022-12-18T09:08:46.022Z,-5.16
2022-12-18T09:11:51.401Z,-5.13
2022-12-18T09:14:57.879Z,-5.11
2022-12-18T09:18:06.154Z,-5.02
2022-12-18T09:21:14.880Z,-4.98
2022-12-18T09:24:21.675Z,-4.94
2022-12-18T09:27:27.929Z,-4.88
2022-12-18T09:30:34.661Z,-4.78
2022-12-18T09:33:46.463Z,-4.82
2022-12-18T09:36:52.335Z,-4.74
2022-12-18T09:39:58.563Z,-4.69
2022-12-18T09:43:10.374Z,-4.69
2022-12-18T09:46:30.778Z,-4.59
2022-12-18T09:49:47.431Z,-4.49
2022-12-18T09:53:01.873Z,-4.39
2022-12-18T09:56:10.594Z,-4.36
2022-12-18T09:59:30.034Z,-4.43
2022-12-18T10:02:36.198Z,-4.33
2022-12-18T10:06:06.521Z,-4.26
2022-12-18T10:09:31.236Z,-4.24
2022-12-18T10:12:59.491Z,-4.26
2022-12-18T10:16:20.728Z,-4.19
2022-12-18T10:19:50.528Z,-4.19
2022-12-18T10:23:17.544Z,-4.18
2022-12-18T10:26:23.999Z,-4.09
2022-12-18T10:29:29.872Z,-3.96
2022-12-18T10:32:36.126Z,-3.85
2022-12-18T10:35:47.545Z,-3.68
2022-12-18T10:38:56.711Z,-3.51
2022-12-18T10:42:20.644Z,-3.32
2022-12-18T10:45:27.040Z,-3.09
2022-12-18T10:48:35.769Z,-2.94
2022-12-18T10:51:42.696Z,-2.78
2022-12-18T10:54:59.456Z,-2.76
2022-12-18T10:58:27.603Z,-2.73
2022-12-18T11:01:52.851Z,-2.71
2022-12-18T11:04:59.195Z,-2.73
2022-12-18T11:08:05.931Z,-3.09
2022-12-18T11:11:26.461Z,-2.94
2022-12-18T11:14:36.806Z,-3.04
2022-12-18T11:17:43.873Z,-3.19
2022-12-18T11:20:59.077Z,-3.28
2022-12-18T11:24:05.635Z,-3.27
2022-12-18T11:27:22.674Z,-3.27
2022-12-18T11:30:32.439Z,-3.25
2022-12-18T11:33:53.145Z,-3.22
2022-12-18T11:37:08.766Z,-3.17
2022-12-18T11:40:23.700Z,-3.10
2022-12-18T11:43:42.184Z,-3.00
2022-12-18T11:46:59.301Z,-2.94
2022-12-18T11:50:16.654Z,-2.94
2022-12-18T11:53:23.593Z,-2.88
2022-12-18T11:56:40.460Z,-2.82
2022-12-18T12:00:07.859Z,-2.79
2022-12-18T12:04:01.502Z,-2.73
2022-12-18T12:07:30.689Z,-2.75
2022-12-18T12:11:00.445Z,-2.82
2022-12-18T12:14:32.794Z,-2.93
2022-12-18T12:17:58.529Z,-3.05
2022-12-18T12:21:19.396Z,-3.18
2022-12-18T12:24:46.946Z,-3.21
2022-12-18T12:28:16.918Z,-3.34
2022-12-18T12:31:50.746Z,-3.44
2022-12-18T12:35:29.561Z,-3.42
2022-12-18T12:38:51.693Z,-3.46
2022-12-18T12:42:14.212Z,-3.54
2022-12-18T12:45:31.190Z,-3.66
2022-12-18T12:48:50.593Z,-3.73
2022-12-18T12:52:15.327Z,-3.76
2022-12-18T12:55:26.154Z,-3.84
2022-12-18T12:58:49.522Z,-3.90
2022-12-18T13:02:09.625Z,-3.88
2022-12-18T13:05:30.241Z,-3.83
2022-12-18T13:08:59.445Z,-3.85
2022-12-18T13:12:42.429Z,-3.89
2022-12-18T13:15:52.449Z,-3.99
2022-12-18T13:19:01.940Z,-4.10
2022-12-18T13:22:07.518Z,-4.11
2022-12-18T13:25:44.547Z,-4.09
2022-12-18T13:28:58.264Z,-4.11
2022-12-18T13:32:05.708Z,-4.13
2022-12-18T13:35:43.937Z,-4.13
2022-12-18T13:38:51.018Z,-4.12
2022-12-18T13:43:00.361Z,-4.12
2022-12-18T13:46:23.378Z,-4.15
2022-12-18T13:49:42.099Z,-4.16
2022-12-18T13:52:48.906Z,-4.17
2022-12-18T13:55:54.836Z,-4.18
2022-12-18T13:59:24.383Z,-4.20
2022-12-18T14:02:34.359Z,-4.23
2022-12-18T14:05:43.141Z,-4.29
2022-12-18T14:08:51.964Z,-4.30
2022-12-18T14:12:13.807Z,-4.35
2022-12-18T14:15:39.461Z,-4.42
2022-12-18T14:19:00.111Z,-4.48
2022-12-18T14:22:19.013Z,-4.55
2022-12-18T14:25:29.068Z,-4.61
2022-12-18T14:28:34.700Z,-4.67
2022-12-18T14:31:43.965Z,-4.73
2022-12-18T14:34:52.924Z,-4.80
2022-12-18T14:38:28.371Z,-4.94
2022-12-18T14:41:34.349Z,-5.03
2022-12-18T14:44:57.660Z,-5.15
2022-12-18T14:48:29.283Z,-5.22
2022-12-18T14:51:39.927Z,-5.27
2022-12-18T14:54:51.914Z,-5.39
2022-12-18T14:58:01.356Z,-5.35
2022-12-18T15:01:22.768Z,-5.39
2022-12-18T15:04:36.683Z,-5.45
2022-12-18T15:07:46.655Z,-5.49
2022-12-18T15:10:52.943Z,-5.54
2022-12-18T15:13:58.341Z,-5.61
2022-12-18T15:17:10.912Z,-5.69
2022-12-18T15:20:19.458Z,-5.76
2022-12-18T15:23:30.355Z,-5.80
2022-12-18T15:26:41.961Z,-5.84
2022-12-18T15:30:20.602Z,-5.88
2022-12-18T15:33:30.641Z,-5.94
2022-12-18T15:36:39.921Z,-6.01
2022-12-18T15:39:45.373Z,-6.06
2022-12-18T15:43:11.131Z,-6.11
2022-12-18T15:46:20.259Z,-6.16
2022-12-18T15:49:26.927Z,-6.21
2022-12-18T15:52:45.695Z,-6.25
2022-12-18T15:56:07.446Z,-6.30
2022-12-18T15:59:16.917Z,-6.51
2022-12-18T16:02:26.681Z,-6.38
2022-12-18T16:05:32.710Z,-6.69
2022-12-18T16:08:41.763Z,-6.45
2022-12-18T16:11:48.733Z,-6.49
2022-12-18T16:14:55.391Z,-6.51
2022-12-18T16:18:00.791Z,-6.51
2022-12-18T16:21:07.448Z,-6.53
2022-12-18T16:24:19.987Z,-6.59
2022-12-18T16:27:28.231Z,-6.59
2022-12-18T16:30:38.641Z,-6.65
2022-12-18T16:33:45.062Z,-6.68
2022-12-18T16:36:50.975Z,-6.72
2022-12-18T16:40:00.162Z,-6.77
2022-12-18T16:43:05.626Z,-6.80
2022-12-18T16:46:12.818Z,-6.84
2022-12-18T16:49:20.676Z,-6.89
2022-12-18T16:52:26.985Z,-6.90
2022-12-18T16:55:35.171Z,-6.96
2022-12-18T16:58:41.414Z,-6.97
2022-12-18T17:01:48.125Z,-7.01
2022-12-18T17:04:57.723Z,-7.05
2022-12-18T17:08:03.180Z,-7.07
2022-12-18T17:11:12.329Z,-7.12
2022-12-18T17:14:21.563Z,-7.16
2022-12-18T17:17:28.026Z,-7.24
2022-12-18T17:20:34.556Z,-7.39
2022-12-18T17:23:41.621Z,-7.55
2022-12-18T17:26:51.297Z,-7.67
2022-12-18T17:29:57.862Z,-7.78
2022-12-18T17:33:03.256Z,-7.89
2022-12-18T17:36:10.772Z,-7.96
2022-12-18T17:39:23.568Z,-8.02
2022-12-18T17:42:32.609Z,-8.15
2022-12-18T17:45:39.731Z,-8.22
2022-12-18T17:48:45.986Z,-8.26
2022-12-18T17:51:51.949Z,-8.27
2022-12-18T17:54:58.580Z,-8.30
2022-12-18T17:58:07.163Z,-8.33
2022-12-18T18:01:18.940Z,-8.39
2022-12-18T18:04:24.764Z,-8.45
2022-12-18T18:07:31.238Z,-8.44
2022-12-18T18:10:39.770Z,-8.43
2022-12-18T18:14:01.143Z,-8.42
2022-12-18T18:17:07.300Z,-8.38
2022-12-18T18:20:22.150Z,-8.36
2022-12-18T18:23:28.881Z,-8.35
2022-12-18T18:26:38.037Z,-8.34
2022-12-18T18:29:46.512Z,-8.33
2022-12-18T18:32:52.799Z,-8.33
2022-12-18T18:35:58.520Z,-8.33
2022-12-18T18:39:04.930Z,-8.34
2022-12-18T18:42:11.014Z,-8.37
2022-12-18T18:45:20.139Z,-8.37
2022-12-18T18:48:25.655Z,-8.40
2022-12-18T18:51:35.574Z,-8.41
2022-12-18T18:54:57.219Z,-8.45
2022-12-18T18:58:07.671Z,-8.49
2022-12-18T19:01:19.565Z,-8.59
2022-12-18T19:04:26.538Z,-8.54
2022-12-18T19:07:31.979Z,-8.58
2022-12-18T19:10:43.044Z,-8.60
2022-12-18T19:13:45.836Z,-8.61
2022-12-18T19:16:55.403Z,-8.65
2022-12-18T19:20:01.137Z,-8.68
2022-12-18T19:23:07.661Z,-8.72
2022-12-18T19:26:27.461Z,-8.74
2022-12-18T19:29:34.591Z,-8.79
2022-12-18T19:32:44.926Z,-8.81
2022-12-18T19:35:52.507Z,-8.83
2022-12-18T19:39:00.695Z,-9.14
2022-12-18T19:42:07.508Z,-8.92
2022-12-18T19:45:14.207Z,-8.93
2022-12-18T19:48:23.604Z,-8.96
2022-12-18T19:51:31.988Z,-9.00
2022-12-18T19:54:39.165Z,-9.04
2022-12-18T19:57:47.316Z,-9.06
2022-12-18T20:00:53.829Z,-9.11
2022-12-18T20:04:03.378Z,-9.19
2022-12-18T20:07:10.462Z,-9.25
2022-12-18T20:10:17.744Z,-9.29
2022-12-18T20:13:25.232Z,-9.30
2022-12-18T20:16:33.498Z,-9.36
2022-12-18T20:19:43.586Z,-9.39
2022-12-18T20:22:49.415Z,-9.43
2022-12-18T20:25:57.539Z,-9.57
2022-12-18T20:29:03.176Z,-9.53
2022-12-18T20:32:09.865Z,-9.61
2022-12-18T20:35:18.416Z,-9.56
2022-12-18T20:38:24.960Z,-9.59
2022-12-18T20:41:38.118Z,-9.62
2022-12-18T20:44:45.855Z,-9.68
2022-12-18T20:47:51.269Z,-9.72
2022-12-18T20:51:05.876Z,-9.77
2022-12-18T20:54:12.066Z,-9.79
2022-12-18T20:57:18.430Z,-9.83
2022-12-18T21:00:24.166Z,-9.89
2022-12-18T21:03:30.469Z,-9.94
2022-12-18T21:06:39.103Z,-9.97
2022-12-18T21:09:45.609Z,-10.01
2022-12-18T21:13:01.702Z,-10.06
2022-12-18T21:16:11.599Z,-10.05
2022-12-18T21:19:21.329Z,-10.04
2022-12-18T21:22:31.571Z,-10.06
2022-12-18T21:25:36.961Z,-10.06
2022-12-18T21:28:43.408Z,-10.08
2022-12-18T21:31:49.491Z,-10.09
2022-12-18T21:34:56.477Z,-10.09
2022-12-18T21:38:05.714Z,-10.08
2022-12-18T21:41:40.261Z,-10.07
2022-12-18T21:44:47.387Z,-10.04
2022-12-18T21:47:53.585Z,-10.00
2022-12-18T21:50:58.929Z,-9.99
2022-12-18T21:54:08.205Z,-10.01
2022-12-18T21:57:14.347Z,-10.08
2022-12-18T22:00:21.346Z,-10.09
2022-12-18T22:03:26.856Z,-10.19
2022-12-18T22:06:33.211Z,-10.26
2022-12-18T22:09:42.262Z,-10.48
2022-12-18T22:12:48.915Z,-10.50
2022-12-18T22:15:54.430Z,-10.53
2022-12-18T22:19:00.858Z,-10.57
2022-12-18T22:22:06.482Z,-10.63
2022-12-18T22:25:16.083Z,-10.60
2022-12-18T22:28:37.360Z,-10.59
2022-12-18T22:31:44.494Z,-10.55
2022-12-18T22:34:49.912Z,-10.48
2022-12-18T22:37:56.526Z,-10.44
2022-12-18T22:41:04.738Z,-10.38
2022-12-18T22:44:12.066Z,-10.41
2022-12-18T22:47:20.605Z,-10.37
2022-12-18T22:50:26.851Z,-10.36
2022-12-18T22:53:32.272Z,-10.35
2022-12-18T22:56:41.562Z,-10.35
2022-12-18T22:59:46.916Z,-10.37
2022-12-18T23:02:59.146Z,-10.37
2022-12-18T23:06:10.531Z,-10.29
2022-12-18T23:09:20.465Z,-10.26
2022-12-18T23:12:28.777Z,-10.24
2022-12-18T23:15:36.308Z,-10.22
2022-12-18T23:18:42.361Z,-10.18
2022-12-18T23:21:48.553Z,-10.21
2022-12-18T23:24:53.910Z,-10.17
2022-12-18T23:28:02.980Z,-10.12
2022-12-18T23:31:13.466Z,-10.13
2022-12-18T23:34:21.508Z,-10.12
2022-12-18T23:37:50.285Z,-10.12
2022-12-18T23:40:53.076Z,-10.07
2022-12-18T23:44:04.649Z,-10.04
2022-12-18T23:47:11.159Z,-10.06
2022-12-18T23:50:16.780Z,-10.12
2022-12-18T23:53:23.015Z,-10.17
2022-12-18T23:56:29.693Z,-10.11
2022-12-18T23:59:38.730Z,-10.11
